KAMA/AMA METAR and TAF weather

Enter ICAO airport designator
Station Type Date Time Source
KAMA METAR 2019/06/26 17:53 UTC NOAA

KAMA 261753Z 15018G23KT 10SM CLR 32/13 A3012 RMK AO2 SLP142 T03170133 10317 20194 58004


Station Type Date Time Source
KAMA Decoded METAR 2019/06/26 17:53 UTC NOAA

AMARILLO INTERNATIONAL AIRPORT, TX, United States (KAMA) 35-13N 101-43W 1093M
Jun 26, 2019 - 01:53 PM EDT / 2019.06.26 1753 UTC
Wind: from the SSE (150 degrees) at 21 MPH (18 KT) gusting to 26 MPH (23 KT):0
Visibility: 10 mile(s):0
Sky conditions: clear
Temperature: 89.1 F (31.7 C)
Dew Point: 55.9 F (13.3 C)
Relative Humidity: 32%
Pressure (altimeter): 30.12 in. Hg (1019 hPa)
Pressure tendency: 0.01 inches (0.4 hPa) lower than three hours ago
ob: KAMA 261753Z 15018G23KT 10SM CLR 32/13 A3012 RMK AO2 SLP142 T03170133 10317 20194 58004
cycle: 18

Station Type Date Time Source
KAMA TAF 2019/06/26 18:42 UTC NOAA

TAF KAMA 261739Z 2618/2718 19019G28KT P6SM FEW150
FM270000 17019G28KT P6SM VCSH SCT150
FM270200 16014KT P6SM VCSH BKN200
FM270400 16012KT P6SM BKN150
FM271000 19011KT P6SM SCT200

Example: see airport list